createdAt,value
2016-02-25T00:00:53.851Z,985.41
2016-02-25T00:01:53.855Z,985.41
2016-02-25T00:02:53.857Z,985.38
2016-02-25T00:03:53.844Z,985.36
2016-02-25T00:04:53.848Z,985.37
2016-02-25T00:05:53.850Z,985.3
2016-02-25T00:06:53.837Z,985.32
2016-02-25T00:07:53.839Z,985.31
2016-02-25T00:08:53.842Z,985.32
2016-02-25T00:09:53.830Z,985.31
2016-02-25T00:10:53.832Z,985.28
2016-02-25T00:11:53.836Z,985.31
2016-02-25T00:12:53.822Z,985.31
2016-02-25T00:13:53.824Z,985.33
2016-02-25T00:14:53.828Z,985.3
2016-02-25T00:15:53.814Z,985.28
2016-02-25T00:16:53.817Z,985.24
2016-02-25T00:17:53.805Z,985.29
2016-02-25T00:18:53.807Z,985.25
2016-02-25T00:19:53.810Z,985.28
2016-02-25T00:20:53.796Z,985.27
2016-02-25T00:21:53.800Z,985.25
2016-02-25T00:22:53.802Z,985.29
2016-02-25T00:23:53.788Z,985.25
2016-02-25T00:24:53.791Z,985.22
2016-02-25T00:25:53.794Z,985.17
2016-02-25T00:26:53.782Z,985.18
2016-02-25T00:27:53.785Z,985.18
2016-02-25T00:28:53.802Z,985.18
2016-02-25T00:29:53.773Z,985.15
2016-02-25T00:30:53.776Z,985.2
2016-02-25T00:31:53.764Z,985.18
2016-02-25T00:32:53.767Z,985.17
2016-02-25T00:33:53.769Z,985.16
2016-02-25T00:34:53.756Z,985.18
2016-02-25T00:35:53.759Z,985.17
2016-02-25T00:36:53.745Z,985.15
2016-02-25T00:37:53.749Z,985.13
2016-02-25T00:38:53.751Z,985.2
2016-02-25T00:39:53.739Z,985.17
2016-02-25T00:40:53.741Z,985.19
2016-02-25T00:41:53.728Z,985.2
2016-02-25T00:42:53.731Z,985.2
2016-02-25T00:43:53.733Z,985.22
2016-02-25T00:44:53.720Z,985.21
2016-02-25T00:45:53.723Z,985.21
2016-02-25T00:46:53.725Z,985.18
2016-02-25T00:47:53.714Z,985.17
2016-02-25T00:48:53.716Z,985.16
2016-02-25T00:49:53.703Z,985.15
2016-02-25T00:50:53.705Z,985.13
2016-02-25T00:51:53.708Z,985.14
2016-02-25T00:52:53.696Z,985.12
2016-02-25T00:53:53.698Z,985.15
2016-02-25T00:54:53.701Z,985.16
2016-02-25T00:55:53.687Z,985.17
2016-02-25T00:56:53.690Z,985.1
2016-02-25T00:57:53.677Z,985.14
2016-02-25T00:58:53.680Z,985.16
2016-02-25T00:59:53.682Z,985.15
2016-02-25T01:00:53.685Z,985.12
2016-02-25T01:01:53.673Z,985.15
2016-02-25T01:02:53.675Z,985.13
2016-02-25T01:03:53.678Z,985.16
2016-02-25T01:04:53.665Z,985.19
2016-02-25T01:05:53.651Z,985.18
2016-02-25T01:06:53.654Z,985.15
2016-02-25T01:07:53.657Z,985.15
2016-02-25T01:08:53.660Z,985.16
2016-02-25T01:09:53.662Z,985.1
2016-02-25T01:10:53.650Z,985.1
2016-02-25T01:11:53.653Z,985.1
2016-02-25T01:12:53.639Z,985.06
2016-02-25T01:13:53.642Z,985.06
2016-02-25T01:14:53.630Z,985.05
2016-02-25T01:15:53.632Z,985.07
2016-02-25T01:16:53.619Z,985.03
2016-02-25T01:17:53.622Z,985.05
2016-02-25T01:18:53.624Z,985.03
2016-02-25T01:19:53.627Z,984.99
2016-02-25T01:20:53.630Z,984.99
2016-02-25T01:21:53.617Z,984.99
2016-02-25T01:22:53.619Z,984.97
2016-02-25T01:23:53.607Z,984.95
2016-02-25T01:24:53.594Z,984.94
2016-02-25T01:25:53.612Z,984.93
2016-02-25T01:26:53.599Z,984.93
2016-02-25T01:27:53.586Z,984.95
2016-02-25T01:28:53.589Z,984.92
2016-02-25T01:29:53.591Z,984.87
2016-02-25T01:30:53.579Z,984.9
2016-02-25T01:31:53.581Z,984.88
2016-02-25T01:32:53.584Z,984.9
2016-02-25T01:33:53.571Z,984.89
2016-02-25T01:34:53.574Z,984.84
2016-02-25T01:35:53.561Z,984.83
2016-02-25T01:36:53.564Z,984.81
2016-02-25T01:37:53.567Z,984.81
2016-02-25T01:38:53.553Z,984.79
2016-02-25T01:39:53.556Z,984.78
2016-02-25T01:40:53.543Z,984.79
2016-02-25T01:41:53.546Z,984.73
2016-02-25T01:42:53.533Z,984.71
2016-02-25T01:43:53.567Z,984.7
2016-02-25T01:44:53.539Z,984.66
2016-02-25T01:45:53.542Z,984.65
2016-02-25T01:46:53.544Z,984.64
2016-02-25T01:47:53.530Z,984.63
2016-02-25T01:48:53.533Z,984.62
2016-02-25T01:49:53.520Z,984.62
2016-02-25T01:50:53.523Z,984.6
2016-02-25T01:51:53.511Z,984.57
2016-02-25T01:52:53.513Z,984.6
2016-02-25T01:53:53.516Z,984.56
2016-02-25T01:54:53.502Z,984.6
2016-02-25T01:55:53.505Z,984.6
2016-02-25T01:56:53.493Z,984.54
2016-02-25T01:57:53.495Z,984.54
2016-02-25T01:58:53.498Z,984.55
2016-02-25T01:59:53.485Z,984.55
2016-02-25T02:00:53.471Z,984.53
2016-02-25T02:01:53.474Z,984.49
2016-02-25T02:02:53.477Z,984.54
2016-02-25T02:03:53.465Z,984.53
2016-02-25T02:04:53.452Z,984.51
2016-02-25T02:05:53.446Z,984.53
2016-02-25T02:06:53.458Z,984.5
2016-02-25T02:07:53.468Z,984.49
2016-02-25T02:08:53.470Z,984.53
2016-02-25T02:09:53.550Z,984.55
2016-02-25T02:10:53.459Z,984.54
2016-02-25T02:11:53.430Z,984.53
2016-02-25T02:12:53.417Z,984.49
2016-02-25T02:13:53.419Z,984.51
2016-02-25T02:14:53.407Z,984.56
2016-02-25T02:15:53.410Z,984.52
2016-02-25T02:16:53.413Z,984.46
2016-02-25T02:17:53.383Z,984.49
2016-02-25T02:18:53.386Z,984.48
2016-02-25T02:19:53.389Z,984.46
2016-02-25T02:20:53.392Z,984.47
2016-02-25T02:21:53.395Z,984.44
2016-02-25T02:22:53.382Z,984.45
2016-02-25T02:23:53.368Z,984.45
2016-02-25T02:24:53.371Z,984.52
2016-02-25T02:25:53.374Z,984.46
2016-02-25T02:26:53.345Z,984.48
2016-02-25T02:27:53.348Z,984.45
2016-02-25T02:28:53.351Z,984.48
2016-02-25T02:29:53.338Z,984.51
2016-02-25T02:30:53.340Z,984.47
2016-02-25T02:31:53.343Z,984.5
2016-02-25T02:32:53.331Z,984.42
2016-02-25T02:33:53.318Z,984.47
2016-02-25T02:34:53.320Z,984.49
2016-02-25T02:35:53.323Z,984.44
2016-02-25T02:36:53.310Z,984.41
2016-02-25T02:37:53.297Z,984.48
2016-02-25T02:38:53.300Z,984.48
2016-02-25T02:39:53.303Z,984.43
2016-02-25T02:40:53.305Z,984.47
2016-02-25T02:41:53.292Z,984.47
2016-02-25T02:42:53.280Z,984.48
2016-02-25T02:43:53.283Z,984.45
2016-02-25T02:44:53.269Z,984.49
2016-02-25T02:45:53.271Z,984.5
2016-02-25T02:46:53.275Z,984.46
2016-02-25T02:47:53.261Z,984.45
2016-02-25T02:48:53.249Z,984.42
2016-02-25T02:49:53.251Z,984.42
2016-02-25T02:50:53.254Z,984.44
2016-02-25T02:51:53.241Z,984.43
2016-02-25T02:52:53.243Z,984.44
2016-02-25T02:53:53.230Z,984.42
2016-02-25T02:54:53.233Z,984.38
2016-02-25T02:55:53.221Z,984.4
2016-02-25T02:56:53.223Z,984.4
2016-02-25T02:57:53.210Z,984.37
2016-02-25T02:58:53.212Z,984.38
2016-02-25T02:59:53.215Z,984.36
2016-02-25T03:00:53.217Z,984.32
2016-02-25T03:01:53.205Z,984.35
2016-02-25T03:02:53.192Z,984.33
2016-02-25T03:03:53.195Z,984.28
2016-02-25T03:04:53.181Z,984.26
2016-02-25T03:05:53.175Z,984.29
2016-02-25T03:06:53.177Z,984.27
2016-02-25T03:07:53.179Z,984.23
2016-02-25T03:08:53.167Z,984.26
2016-02-25T03:09:53.169Z,984.27
2016-02-25T03:10:53.156Z,984.24
2016-02-25T03:11:53.159Z,984.29
2016-02-25T03:12:53.161Z,984.29
2016-02-25T03:13:53.149Z,984.29
2016-02-25T03:14:53.135Z,984.35
2016-02-25T03:15:53.139Z,984.36
2016-02-25T03:16:53.141Z,984.35
2016-02-25T03:17:53.128Z,984.32
2016-02-25T03:18:53.130Z,984.35
2016-02-25T03:19:53.118Z,984.34
2016-02-25T03:20:53.121Z,984.34
2016-02-25T03:21:53.107Z,984.31
2016-02-25T03:22:53.111Z,984.39
2016-02-25T03:23:53.113Z,984.38
2016-02-25T03:24:53.101Z,984.41
2016-02-25T03:25:53.087Z,984.39
2016-02-25T03:26:53.090Z,984.42
2016-02-25T03:27:53.076Z,984.38
2016-02-25T03:28:53.079Z,984.41
2016-02-25T03:29:53.066Z,984.39
2016-02-25T03:30:53.070Z,984.42
2016-02-25T03:31:53.072Z,984.39
2016-02-25T03:32:53.059Z,984.41
2016-02-25T03:33:53.078Z,984.37
2016-02-25T03:34:53.049Z,984.39
2016-02-25T03:35:53.051Z,984.42
2016-02-25T03:36:53.039Z,984.39
2016-02-25T03:37:53.042Z,984.39
2016-02-25T03:38:53.028Z,984.4
2016-02-25T03:39:53.030Z,984.39
2016-02-25T03:40:53.033Z,984.39
2016-02-25T03:41:53.021Z,984.38
2016-02-25T03:42:53.024Z,984.35
2016-02-25T03:43:53.011Z,984.35
2016-02-25T03:44:53.014Z,984.37
2016-02-25T03:45:53.000Z,984.41
2016-02-25T03:46:53.002Z,984.39
2016-02-25T03:47:52.990Z,984.41
2016-02-25T03:48:52.993Z,984.39
2016-02-25T03:49:52.980Z,984.43
2016-02-25T03:50:52.982Z,984.37
2016-02-25T03:51:52.969Z,984.34
2016-02-25T03:52:52.971Z,984.36
2016-02-25T03:53:52.960Z,984.34
2016-02-25T03:54:52.962Z,984.36
2016-02-25T03:55:52.965Z,984.35
2016-02-25T03:56:52.951Z,984.33
2016-02-25T03:57:52.954Z,984.31
2016-02-25T03:58:52.942Z,984.33
2016-02-25T03:59:52.944Z,984.33
2016-02-25T04:00:52.931Z,984.37
2016-02-25T04:01:52.934Z,984.36
2016-02-25T04:02:52.937Z,984.35
2016-02-25T04:03:52.923Z,984.36
2016-02-25T04:04:52.911Z,984.34
2016-02-25T04:05:52.916Z,984.35
2016-02-25T04:06:52.904Z,984.3
2016-02-25T04:07:52.906Z,984.31
2016-02-25T04:08:52.908Z,984.29
2016-02-25T04:09:52.896Z,984.36
2016-02-25T04:10:52.883Z,984.31
2016-02-25T04:11:52.886Z,984.31
2016-02-25T04:12:52.872Z,984.33
2016-02-25T04:13:52.875Z,984.37
2016-02-25T04:14:52.878Z,984.34
2016-02-25T04:15:52.866Z,984.33
2016-02-25T04:16:52.868Z,984.38
2016-02-25T04:17:52.855Z,984.37
2016-02-25T04:18:52.858Z,984.4
2016-02-25T04:19:52.845Z,984.38
2016-02-25T04:20:52.847Z,984.4
2016-02-25T04:21:52.834Z,984.41
2016-02-25T04:22:52.837Z,984.42
2016-02-25T04:23:52.824Z,984.47
2016-02-25T04:24:52.826Z,984.47
2016-02-25T04:25:52.813Z,984.48
2016-02-25T04:26:52.833Z,984.49
2016-02-25T04:27:52.819Z,984.51
2016-02-25T04:28:52.806Z,984.52
2016-02-25T04:29:52.809Z,984.55
2016-02-25T04:30:52.796Z,984.56
2016-02-25T04:31:52.783Z,984.55
2016-02-25T04:32:52.786Z,984.57
2016-02-25T04:33:52.789Z,984.57
2016-02-25T04:34:52.775Z,984.57
2016-02-25T04:35:52.778Z,984.54
2016-02-25T04:36:52.765Z,984.57
2016-02-25T04:37:52.768Z,984.53
2016-02-25T04:38:52.755Z,984.54
2016-02-25T04:39:52.758Z,984.5
2016-02-25T04:40:52.745Z,984.55
2016-02-25T04:41:52.748Z,984.51
2016-02-25T04:42:52.734Z,984.53
2016-02-25T04:43:52.736Z,984.55
2016-02-25T04:44:52.740Z,984.55
2016-02-25T04:45:52.727Z,984.53
2016-02-25T04:46:52.730Z,984.53
2016-02-25T04:47:52.717Z,984.57
2016-02-25T04:48:52.719Z,984.57
2016-02-25T04:49:52.707Z,984.58
2016-02-25T04:50:52.710Z,984.65
2016-02-25T04:51:52.697Z,984.65
2016-02-25T04:52:52.699Z,984.68
2016-02-25T04:53:52.685Z,984.66
2016-02-25T04:54:52.688Z,984.62
2016-02-25T04:55:52.676Z,984.66
2016-02-25T04:56:52.678Z,984.65
2016-02-25T04:57:52.665Z,984.63
2016-02-25T04:58:52.699Z,984.62
2016-02-25T04:59:52.655Z,984.64
2016-02-25T05:00:52.658Z,984.65
2016-02-25T05:01:52.645Z,984.62
2016-02-25T05:02:52.648Z,984.63
2016-02-25T05:03:52.635Z,984.61
2016-02-25T05:04:52.637Z,984.61
2016-02-25T05:05:52.625Z,984.59
2016-02-25T05:06:52.628Z,984.59
2016-02-25T05:07:52.615Z,984.61
2016-02-25T05:08:52.617Z,984.6
2016-02-25T05:09:52.604Z,984.63
2016-02-25T05:10:52.607Z,984.62
2016-02-25T05:11:52.609Z,984.65
2016-02-25T05:12:52.597Z,984.65
2016-02-25T05:13:52.599Z,984.63
2016-02-25T05:14:52.587Z,984.65
2016-02-25T05:15:52.589Z,984.63
2016-02-25T05:16:54.342Z,984.65
2016-02-25T05:17:52.578Z,984.63
2016-02-25T05:18:52.566Z,984.65
2016-02-25T05:19:52.569Z,984.6
2016-02-25T05:20:52.572Z,984.62
2016-02-25T05:21:52.558Z,984.68
2016-02-25T05:22:52.546Z,984.66
2016-02-25T05:23:52.549Z,984.66
2016-02-25T05:24:52.535Z,984.62
2016-02-25T05:25:52.538Z,984.65
2016-02-25T05:26:52.541Z,984.62
2016-02-25T05:27:52.527Z,984.6
2016-02-25T05:28:52.515Z,984.64
2016-02-25T05:29:52.518Z,984.7
2016-02-25T05:30:52.521Z,984.68
2016-02-25T05:31:52.507Z,984.68
2016-02-25T05:32:52.509Z,984.7
2016-02-25T05:33:52.497Z,984.66
2016-02-25T05:34:52.499Z,984.7
2016-02-25T05:35:52.487Z,984.71
2016-02-25T05:36:52.490Z,984.71
2016-02-25T05:37:52.476Z,984.69
2016-02-25T05:38:52.479Z,984.75
2016-02-25T05:39:52.467Z,984.76
2016-02-25T05:40:52.470Z,984.78
2016-02-25T05:41:52.456Z,984.77
2016-02-25T05:42:52.458Z,984.78
2016-02-25T05:43:52.445Z,984.76
2016-02-25T05:44:52.448Z,984.77
2016-02-25T05:45:52.436Z,984.74
2016-02-25T05:46:52.438Z,984.7
2016-02-25T05:47:52.425Z,984.74
2016-02-25T05:48:52.427Z,984.7
2016-02-25T05:49:52.414Z,984.68
2016-02-25T05:50:52.417Z,984.71
2016-02-25T05:51:52.420Z,984.68
2016-02-25T05:52:52.422Z,984.75
2016-02-25T05:53:52.395Z,984.76
2016-02-25T05:54:52.396Z,984.74
2016-02-25T05:55:52.385Z,984.73
2016-02-25T05:56:52.387Z,984.71
2016-02-25T05:57:52.374Z,984.7
2016-02-25T05:58:52.377Z,984.73
2016-02-25T05:59:52.380Z,984.74
2016-02-25T06:00:52.366Z,984.8
2016-02-25T06:01:52.368Z,984.79
2016-02-25T06:02:52.371Z,984.75
2016-02-25T06:03:52.359Z,984.78
2016-02-25T06:04:52.346Z,984.78
2016-02-25T06:05:52.333Z,984.75
2016-02-25T06:06:52.335Z,984.77
2016-02-25T06:07:52.338Z,984.8
2016-02-25T06:08:52.325Z,984.81
2016-02-25T06:09:52.313Z,984.88
2016-02-25T06:10:52.315Z,984.87
2016-02-25T06:11:52.318Z,984.85
2016-02-25T06:12:52.305Z,984.86
2016-02-25T06:13:52.308Z,984.88
2016-02-25T06:14:52.295Z,984.84
2016-02-25T06:15:52.297Z,984.88
2016-02-25T06:16:52.284Z,984.8
2016-02-25T06:17:52.287Z,984.83
2016-02-25T06:18:52.290Z,984.81
2016-02-25T06:19:52.277Z,984.84
2016-02-25T06:20:52.264Z,984.83
2016-02-25T06:21:52.267Z,984.8
2016-02-25T06:22:52.253Z,984.76
2016-02-25T06:23:52.256Z,984.76
2016-02-25T06:24:52.244Z,984.82
2016-02-25T06:25:52.246Z,984.79
2016-02-25T06:26:52.249Z,984.76
2016-02-25T06:27:52.236Z,984.78
2016-02-25T06:28:52.224Z,984.81
2016-02-25T06:29:52.241Z,984.77
2016-02-25T06:30:52.213Z,984.78
2016-02-25T06:31:52.215Z,984.8
2016-02-25T06:32:52.218Z,984.78
2016-02-25T06:33:52.205Z,984.8
2016-02-25T06:34:52.207Z,984.79
2016-02-25T06:35:52.195Z,984.83
2016-02-25T06:36:52.198Z,984.85
2016-02-25T06:37:52.184Z,984.85
2016-02-25T06:38:52.187Z,984.86
2016-02-25T06:39:52.174Z,984.85
2016-02-25T06:40:52.177Z,984.91
2016-02-25T06:41:52.179Z,984.87
2016-02-25T06:42:52.167Z,984.92
2016-02-25T06:43:52.169Z,984.97
2016-02-25T06:44:52.157Z,984.97
2016-02-25T06:45:52.159Z,984.9
2016-02-25T06:46:52.147Z,984.98
2016-02-25T06:47:52.150Z,984.96
2016-02-25T06:48:52.136Z,984.97
2016-02-25T06:49:52.155Z,984.99
2016-02-25T06:50:52.125Z,985.04
2016-02-25T06:51:52.129Z,985.04
2016-02-25T06:52:52.131Z,985.01
2016-02-25T06:53:52.119Z,985.05
2016-02-25T06:54:52.122Z,985.06
2016-02-25T06:55:52.107Z,985.05
2016-02-25T06:56:52.111Z,985.03
2016-02-25T06:57:52.098Z,985.05
2016-02-25T06:58:52.095Z,985.08
2016-02-25T06:59:52.068Z,985.03
2016-02-25T07:00:52.055Z,985.05
2016-02-25T07:01:52.042Z,985.07
2016-02-25T07:02:52.014Z,985.1
2016-02-25T07:03:51.991Z,985.11
2016-02-25T07:04:51.988Z,985.1
2016-02-25T07:05:51.978Z,985.14
2016-02-25T07:06:51.959Z,985.14
2016-02-25T07:07:51.957Z,985.17
2016-02-25T07:08:51.939Z,985.18
2016-02-25T07:09:51.940Z,985.18
2016-02-25T07:10:51.926Z,985.2
2016-02-25T07:11:51.927Z,985.21
2016-02-25T07:12:51.912Z,985.22
2016-02-25T07:13:51.913Z,985.29
2016-02-25T07:14:51.900Z,985.26
2016-02-25T07:15:51.901Z,985.3
2016-02-25T07:16:51.904Z,985.3
2016-02-25T07:17:51.905Z,985.33
2016-02-25T07:18:51.892Z,985.32
2016-02-25T07:19:51.894Z,985.29
2016-02-25T07:20:51.882Z,985.32
2016-02-25T07:21:51.869Z,985.35
2016-02-25T07:22:51.872Z,985.36
2016-02-25T07:23:51.859Z,985.33
2016-02-25T07:24:51.860Z,985.35
2016-02-25T07:25:51.847Z,985.32
2016-02-25T07:26:51.850Z,985.32
2016-02-25T07:27:51.853Z,985.36
2016-02-25T07:28:51.840Z,985.35
2016-02-25T07:29:51.843Z,985.38
2016-02-25T07:30:51.830Z,985.39
2016-02-25T07:31:51.833Z,985.39
2016-02-25T07:32:51.821Z,985.4
2016-02-25T07:33:51.823Z,985.4
2016-02-25T07:34:51.810Z,985.42
2016-02-25T07:35:51.812Z,985.41
2016-02-25T07:36:51.815Z,985.39
2016-02-25T07:37:51.802Z,985.44
2016-02-25T07:38:51.790Z,985.41
2016-02-25T07:39:51.792Z,985.42
2016-02-25T07:40:51.779Z,985.45
2016-02-25T07:41:51.781Z,985.47
2016-02-25T07:42:51.784Z,985.45
2016-02-25T07:43:51.771Z,985.45
2016-02-25T07:44:51.774Z,985.38
2016-02-25T07:45:51.776Z,985.46
2016-02-25T07:46:51.764Z,985.41
2016-02-25T07:47:51.767Z,985.46
2016-02-25T07:48:51.753Z,985.46
2016-02-25T07:49:51.741Z,985.46
2016-02-25T07:50:51.743Z,985.49
2016-02-25T07:51:51.747Z,985.51
2016-02-25T07:52:51.733Z,985.51
2016-02-25T07:53:51.736Z,985.52
2016-02-25T07:54:51.722Z,985.53
2016-02-25T07:55:51.725Z,985.52
2016-02-25T07:56:51.713Z,985.55
2016-02-25T07:57:51.715Z,985.57
2016-02-25T07:58:51.719Z,985.57
2016-02-25T07:59:51.705Z,985.59
2016-02-25T08:00:51.708Z,985.61
2016-02-25T08:01:51.694Z,985.61
2016-02-25T08:02:51.697Z,985.6
2016-02-25T08:03:51.685Z,985.6
2016-02-25T08:04:51.688Z,985.67
2016-02-25T08:05:51.674Z,985.64
2016-02-25T08:06:51.677Z,985.64
2016-02-25T08:07:51.679Z,985.62
2016-02-25T08:08:51.667Z,985.6
2016-02-25T08:09:51.670Z,985.63
2016-02-25T08:10:51.657Z,985.66
2016-02-25T08:11:51.659Z,985.7
2016-02-25T08:12:51.662Z,985.66
2016-02-25T08:13:51.649Z,985.69
2016-02-25T08:14:51.651Z,985.72
2016-02-25T08:15:51.654Z,985.73
2016-02-25T08:16:51.641Z,985.71
2016-02-25T08:17:51.628Z,985.71
2016-02-25T08:18:51.631Z,985.73
2016-02-25T08:19:51.633Z,985.74
2016-02-25T08:20:51.621Z,985.7
2016-02-25T08:21:51.639Z,985.74
2016-02-25T08:22:51.611Z,985.79
2016-02-25T08:23:51.613Z,985.75
2016-02-25T08:24:51.600Z,985.77
2016-02-25T08:25:51.603Z,985.81
2016-02-25T08:26:51.606Z,985.76
2016-02-25T08:27:51.609Z,985.83
2016-02-25T08:28:51.596Z,985.82
2016-02-25T08:29:51.583Z,985.85
2016-02-25T08:30:51.585Z,985.86
2016-02-25T08:31:51.588Z,985.83
2016-02-25T08:32:51.574Z,985.86
2016-02-25T08:33:51.577Z,985.87
2016-02-25T08:34:51.565Z,985.87
2016-02-25T08:35:51.568Z,985.88
2016-02-25T08:36:51.571Z,985.87
2016-02-25T08:37:51.558Z,985.87
2016-02-25T08:38:51.560Z,985.87
2016-02-25T08:39:51.547Z,985.87
2016-02-25T08:40:51.550Z,985.85
2016-02-25T08:41:51.537Z,985.88
2016-02-25T08:42:51.539Z,985.84
2016-02-25T08:43:51.543Z,985.89
2016-02-25T08:44:51.529Z,985.87
2016-02-25T08:45:51.532Z,985.89
2016-02-25T08:46:51.535Z,985.86
2016-02-25T08:47:51.522Z,985.88
2016-02-25T08:48:51.525Z,985.89
2016-02-25T08:49:51.527Z,985.93
2016-02-25T08:50:51.514Z,985.88
2016-02-25T08:51:51.517Z,985.88
2016-02-25T08:52:51.503Z,985.9
2016-02-25T08:53:51.506Z,985.85
2016-02-25T08:54:51.509Z,985.86
2016-02-25T08:55:51.512Z,985.9
2016-02-25T08:56:51.500Z,985.86
2016-02-25T08:57:51.502Z,985.9
2016-02-25T08:58:51.489Z,985.9
2016-02-25T08:59:51.491Z,985.9
2016-02-25T09:00:51.494Z,985.88
2016-02-25T09:01:51.481Z,985.92
2016-02-25T09:02:51.483Z,985.93
2016-02-25T09:03:51.486Z,985.97
2016-02-25T09:04:51.489Z,985.95
2016-02-25T09:05:51.477Z,985.97
2016-02-25T09:06:51.480Z,985.99
2016-02-25T09:07:51.466Z,985.96
2016-02-25T09:08:51.468Z,985.96
2016-02-25T09:09:51.456Z,985.98
2016-02-25T09:10:51.474Z,985.99
2016-02-25T09:11:51.462Z,985.94
2016-02-25T09:12:51.464Z,985.97
2016-02-25T09:13:51.467Z,985.98
2016-02-25T09:14:51.453Z,985.98
2016-02-25T09:15:51.456Z,985.96
2016-02-25T09:16:51.443Z,985.98
2016-02-25T09:17:51.446Z,985.99
2016-02-25T09:18:51.449Z,985.97
2016-02-25T09:19:51.437Z,986.01
2016-02-25T09:20:51.439Z,985.97
2016-02-25T09:21:51.442Z,986
2016-02-25T09:22:51.429Z,985.97
2016-02-25T09:23:51.431Z,986
2016-02-25T09:24:51.434Z,985.96
2016-02-25T09:25:51.418Z,986.01
2016-02-25T09:26:51.421Z,986.01
2016-02-25T09:27:51.423Z,986
2016-02-25T09:28:51.411Z,986.01
2016-02-25T09:29:51.414Z,985.99
2016-02-25T09:30:51.417Z,986
2016-02-25T09:31:51.403Z,986
2016-02-25T09:32:51.406Z,986.03
2016-02-25T09:33:51.409Z,986.03
2016-02-25T09:34:51.396Z,986
2016-02-25T09:35:51.400Z,986.03
2016-02-25T09:36:51.402Z,986.04
2016-02-25T09:37:51.405Z,986
2016-02-25T09:38:51.391Z,986
2016-02-25T09:39:51.394Z,985.98
2016-02-25T09:40:51.396Z,986
2016-02-25T09:41:51.383Z,986.03
2016-02-25T09:42:51.386Z,986.05
2016-02-25T09:43:51.374Z,986.09
2016-02-25T09:44:51.376Z,986.04
2016-02-25T09:45:51.379Z,986.05
2016-02-25T09:46:51.382Z,986.06
2016-02-25T09:47:51.369Z,986.07
2016-02-25T09:48:51.371Z,986.09
2016-02-25T09:49:51.358Z,986.09
2016-02-25T09:50:51.361Z,986.11
2016-02-25T09:51:51.363Z,986.1
2016-02-25T09:52:51.351Z,986.09
2016-02-25T09:53:51.354Z,986.14
2016-02-25T09:54:51.357Z,986.12
2016-02-25T09:55:51.359Z,986.16
2016-02-25T09:56:51.345Z,986.13
2016-02-25T09:57:51.349Z,986.22
2016-02-25T09:58:51.336Z,986.22
2016-02-25T09:59:51.339Z,986.22
2016-02-25T10:00:51.341Z,986.23
2016-02-25T10:01:51.328Z,986.21
2016-02-25T10:02:51.331Z,986.23
2016-02-25T10:03:51.334Z,986.29
2016-02-25T10:04:51.320Z,986.25
2016-02-25T10:05:51.323Z,986.27
2016-02-25T10:06:51.326Z,986.27
2016-02-25T10:07:51.328Z,986.32
2016-02-25T10:08:51.316Z,986.34
2016-02-25T10:09:51.319Z,986.36
2016-02-25T10:10:51.305Z,986.4
2016-02-25T10:11:51.308Z,986.33
2016-02-25T10:12:51.295Z,986.35
2016-02-25T10:13:51.313Z,986.35
2016-02-25T10:14:51.300Z,986.31
2016-02-25T10:15:51.288Z,986.24
2016-02-25T10:16:51.290Z,986.31
2016-02-25T10:17:51.293Z,986.33
2016-02-25T10:18:51.280Z,986.32
2016-02-25T10:19:51.283Z,986.4
2016-02-25T10:20:51.285Z,986.39
2016-02-25T10:21:51.273Z,986.38
2016-02-25T10:22:51.276Z,986.36
2016-02-25T10:23:51.278Z,986.43
2016-02-25T10:24:51.265Z,986.41
2016-02-25T10:25:51.268Z,986.45
2016-02-25T10:26:51.254Z,986.41
2016-02-25T10:27:51.257Z,986.5
2016-02-25T10:28:51.260Z,986.45
2016-02-25T10:29:51.247Z,986.46
2016-02-25T10:30:51.250Z,986.45
2016-02-25T10:31:51.253Z,986.5
2016-02-25T10:32:51.240Z,986.5
2016-02-25T10:33:51.242Z,986.5
2016-02-25T10:34:51.245Z,986.47
2016-02-25T10:35:51.232Z,986.53
2016-02-25T10:36:51.234Z,986.55
2016-02-25T10:37:51.222Z,986.55
2016-02-25T10:38:51.224Z,986.61
2016-02-25T10:39:51.227Z,986.62
2016-02-25T10:40:51.230Z,986.62
2016-02-25T10:41:51.217Z,986.59
2016-02-25T10:42:51.220Z,986.54
2016-02-25T10:43:51.223Z,986.53
2016-02-25T10:44:51.210Z,986.55
2016-02-25T10:45:51.213Z,986.56
2016-02-25T10:46:51.216Z,986.6
2016-02-25T10:47:51.218Z,986.6
2016-02-25T10:48:51.205Z,986.58
2016-02-25T10:49:51.207Z,986.6
2016-02-25T10:50:51.194Z,986.58
2016-02-25T10:51:51.197Z,986.59
2016-02-25T10:52:51.325Z,986.57
2016-02-25T10:53:51.202Z,986.61
2016-02-25T10:54:51.190Z,986.59
2016-02-25T10:55:51.192Z,986.64
2016-02-25T10:56:51.195Z,986.67
2016-02-25T10:57:51.182Z,986.7
2016-02-25T10:58:51.184Z,986.67
2016-02-25T10:59:51.188Z,986.71
2016-02-25T11:00:51.174Z,986.72
2016-02-25T11:01:51.193Z,986.68
2016-02-25T11:02:51.180Z,986.73
2016-02-25T11:03:51.182Z,986.78
2016-02-25T11:04:51.185Z,986.7
2016-02-25T11:05:51.188Z,986.75
2016-02-25T11:06:51.176Z,986.77
2016-02-25T11:07:51.179Z,986.78
2016-02-25T11:08:51.165Z,986.82
2016-02-25T11:09:51.168Z,986.84
2016-02-25T11:10:51.171Z,986.83
2016-02-25T11:11:51.174Z,986.84
2016-02-25T11:12:51.176Z,986.79
2016-02-25T11:13:51.179Z,986.75
2016-02-25T11:14:51.167Z,986.76
2016-02-25T11:15:51.169Z,986.77
2016-02-25T11:16:51.156Z,986.76
2016-02-25T11:17:51.175Z,986.81
2016-02-25T11:18:51.177Z,986.86
2016-02-25T11:19:51.164Z,986.86
2016-02-25T11:20:51.167Z,986.85
2016-02-25T11:21:51.154Z,986.9
2016-02-25T11:22:51.156Z,986.88
2016-02-25T11:23:51.160Z,986.89
2016-02-25T11:24:51.147Z,986.86
2016-02-25T11:25:51.149Z,986.85
2016-02-25T11:26:51.153Z,986.85
2016-02-25T11:27:51.155Z,986.85
2016-02-25T11:28:51.142Z,986.83
2016-02-25T11:29:51.144Z,986.8
2016-02-25T11:30:51.147Z,986.81
2016-02-25T11:31:51.165Z,986.84
2016-02-25T11:32:51.136Z,986.83
2016-02-25T11:33:51.139Z,986.83
2016-02-25T11:34:51.142Z,986.81
2016-02-25T11:35:51.129Z,986.82
2016-02-25T11:36:51.148Z,986.86
2016-02-25T11:37:51.135Z,986.87
2016-02-25T11:38:51.138Z,986.86
2016-02-25T11:39:51.125Z,986.87
2016-02-25T11:40:51.127Z,986.83
2016-02-25T11:41:51.130Z,986.88
2016-02-25T11:42:51.133Z,986.9
2016-02-25T11:43:51.120Z,986.91
2016-02-25T11:44:51.123Z,986.87
2016-02-25T11:45:51.126Z,986.91
2016-02-25T11:46:51.128Z,986.91
2016-02-25T11:47:51.115Z,986.98
2016-02-25T11:48:51.117Z,986.97
2016-02-25T11:49:51.104Z,986.97
2016-02-25T11:50:51.107Z,986.92
2016-02-25T11:51:51.110Z,986.93
2016-02-25T11:52:51.112Z,986.92
2016-02-25T11:53:51.100Z,986.9
2016-02-25T11:54:51.102Z,986.93
2016-02-25T11:55:51.105Z,986.85
2016-02-25T11:56:51.108Z,986.87
2016-02-25T11:57:51.095Z,986.89
2016-02-25T11:58:51.114Z,986.92
2016-02-25T11:59:51.100Z,986.87
2016-02-25T12:00:51.103Z,986.88
2016-02-25T12:01:51.106Z,986.89
2016-02-25T12:02:51.108Z,986.91
2016-02-25T12:03:51.095Z,986.91
2016-02-25T12:04:51.097Z,986.91
2016-02-25T12:05:51.101Z,986.88
2016-02-25T12:06:51.088Z,986.86
2016-02-25T12:07:51.091Z,986.89
2016-02-25T12:08:51.094Z,986.91
2016-02-25T12:09:51.080Z,986.93
2016-02-25T12:10:51.099Z,986.93
2016-02-25T12:11:51.086Z,986.93
2016-02-25T12:12:51.089Z,986.9
2016-02-25T12:13:51.091Z,986.92
2016-02-25T12:14:51.079Z,986.94
2016-02-25T12:15:51.082Z,986.88
2016-02-25T12:16:51.084Z,986.9
2016-02-25T12:17:51.087Z,986.88
2016-02-25T12:18:51.074Z,986.91
2016-02-25T12:19:51.076Z,986.86
2016-02-25T12:20:51.079Z,986.84
2016-02-25T12:21:51.081Z,986.86
2016-02-25T12:22:51.068Z,986.85
2016-02-25T12:23:51.071Z,986.8
2016-02-25T12:24:51.073Z,986.84
2016-02-25T12:25:51.076Z,986.82
2016-02-25T12:26:51.063Z,986.79
2016-02-25T12:27:51.066Z,986.76
2016-02-25T12:28:51.069Z,986.74
2016-02-25T12:29:51.072Z,986.76
2016-02-25T12:30:51.075Z,986.8
2016-02-25T12:31:51.078Z,986.75